Time;durP1;ratioP1;P1;durP2;ratioP2;P2;SDS_P1;SDS_P2;PMS_P1;PMS_P2;Temp;Humidity;BMP_temperature;BMP_pressure;BME280_temperature;BME280_humidity;BME280_pressure;Samples;Min_cycle;Max_cycle;Signal;HPM_P1;HPM_P2
2023/08/24 00:01:04;;;;;;;30.02;28.92;;;22.10;99.90;;;;;;5015613;28;20213;-65
2023/08/24 00:03:32;;;;;;;30.88;29.77;;;22.10;99.90;;;;;;5016320;28;20209;-63
2023/08/24 00:05:59;;;;;;;31.35;30.25;;;22.20;99.90;;;;;;5014775;28;20252;-64
2023/08/24 00:08:26;;;;;;;29.85;28.75;;;22.10;99.90;;;;;;5014564;28;20225;-64
2023/08/24 00:10:54;;;;;;;27.67;26.67;;;22.10;99.90;;;;;;5014135;28;20311;-64
2023/08/24 00:13:21;;;;;;;29.35;28.25;;;22.10;99.90;;;;;;5014780;28;20212;-63
2023/08/24 00:15:49;;;;;;;28.50;27.50;;;22.20;99.90;;;;;;5014468;28;20683;-63
2023/08/24 00:18:18;;;;;;;28.60;27.60;;;22.20;99.90;;;;;;5014526;28;20239;-64
2023/08/24 00:20:45;;;;;;;31.02;29.92;;;22.20;99.90;;;;;;5014157;28;20244;-64
2023/08/24 00:23:11;;;;;;;27.77;26.77;;;22.30;99.90;;;;;;5014257;28;20222;-62
2023/08/24 00:25:40;;;;;;;31.05;29.95;;;22.20;99.90;;;;;;5014365;28;20259;-63
2023/08/24 00:28:07;;;;;;;28.65;27.60;;;22.20;99.90;;;;;;5014227;28;20288;-65
2023/08/24 00:30:34;;;;;;;28.20;27.20;;;22.20;99.90;;;;;;5013398;28;20206;-64
2023/08/24 00:33:03;;;;;;;28.77;27.77;;;22.20;99.90;;;;;;5013693;28;20668;-64
2023/08/24 00:35:30;;;;;;;28.75;27.75;;;22.20;99.90;;;;;;5014306;28;20316;-65
2023/08/24 00:37:57;;;;;;;30.80;29.70;;;22.20;99.90;;;;;;5013912;28;20675;-65
2023/08/24 00:40:24;;;;;;;28.73;27.73;;;22.20;99.90;;;;;;5013348;28;20698;-64
2023/08/24 00:42:51;;;;;;;27.48;26.52;;;22.20;99.90;;;;;;5013586;28;20248;-63
2023/08/24 00:45:18;;;;;;;28.98;27.88;;;22.10;99.90;;;;;;5012943;28;20208;-65
2023/08/24 00:47:48;;;;;;;34.70;33.42;;;22.00;99.90;;;;;;5012855;28;20235;-64
2023/08/24 00:50:17;;;;;;;29.48;28.38;;;22.00;99.90;;;;;;5011813;28;20240;-63
2023/08/24 00:52:45;;;;;;;29.58;28.52;;;22.00;99.90;;;;;;5012458;28;20205;-65
2023/08/24 00:55:12;;;;;;;27.35;26.35;;;22.00;99.90;;;;;;5012630;28;20680;-64
2023/08/24 00:57:40;;;;;;;26.30;25.38;;;22.00;99.90;;;;;;5012777;28;20244;-65
2023/08/24 01:00:10;;;;;;;30.70;29.60;;;22.00;99.90;;;;;;5011666;28;20610;-64
2023/08/24 01:02:37;;;;;;;29.30;28.30;;;22.00;99.90;;;;;;5014037;28;20618;-64
2023/08/24 01:05:05;;;;;;;28.90;27.90;;;22.00;99.90;;;;;;5014243;28;20296;-64
2023/08/24 01:07:36;;;;;;;29.80;28.77;;;22.00;99.90;;;;;;5012568;28;20205;-64
2023/08/24 01:10:04;;;;;;;28.58;27.58;;;22.00;99.90;;;;;;5012285;28;20696;-63
2023/08/24 01:12:42;;;;;;;30.45;29.35;;;22.00;99.90;;;;;;5011505;28;20679;-64
2023/08/24 01:15:14;;;;;;;30.95;29.85;;;22.00;99.90;;;;;;5016394;28;20586;-64
2023/08/24 01:17:44;;;;;;;32.05;30.95;;;22.10;99.90;;;;;;5014214;28;20215;-64
2023/08/24 01:20:13;;;;;;;29.98;28.67;;;22.10;99.90;;;;;;5013027;28;20233;-64
2023/08/24 01:22:50;;;;;;;28.60;27.60;;;22.10;99.90;;;;;;5020395;28;20240;-63
2023/08/24 01:25:23;;;;;;;33.67;32.47;;;22.10;99.90;;;;;;5009840;28;20609;-63
2023/08/24 01:27:52;;;;;;;31.80;30.67;;;22.10;99.90;;;;;;5013140;28;20269;-63
2023/08/24 01:30:19;;;;;;;31.02;29.92;;;22.20;99.90;;;;;;5013050;28;20225;-64
2023/08/24 01:32:46;;;;;;;31.38;30.25;;;22.20;99.90;;;;;;5012124;28;20240;-63
2023/08/24 01:35:13;;;;;;;29.35;28.35;;;22.20;99.90;;;;;;5012293;28;20950;-63
2023/08/24 01:37:40;;;;;;;30.77;29.67;;;22.30;99.90;;;;;;5012113;28;20205;-63
2023/08/24 01:40:12;;;;;;;31.15;30.05;;;22.30;99.90;;;;;;5011900;28;20239;-64
2023/08/24 01:42:46;;;;;;;31.58;30.48;;;22.30;99.90;;;;;;5012153;28;20304;-65
2023/08/24 01:45:15;;;;;;;32.10;30.98;;;22.30;99.90;;;;;;5012208;28;20231;-63
2023/08/24 01:47:43;;;;;;;31.95;30.83;;;22.30;99.90;;;;;;5011892;28;20687;-62
2023/08/24 01:50:11;;;;;;;29.35;28.35;;;22.40;99.90;;;;;;5011320;28;20349;-64
2023/08/24 01:52:38;;;;;;;30.15;29.10;;;22.40;99.90;;;;;;5012219;28;20220;-64
2023/08/24 01:55:05;;;;;;;30.07;29.07;;;22.50;99.90;;;;;;5012314;28;20202;-64
2023/08/24 01:57:32;;;;;;;29.20;28.15;;;22.50;99.90;;;;;;5016701;28;20209;-63
2023/08/24 01:59:59;;;;;;;30.85;29.75;;;22.50;99.90;;;;;;5026806;28;20225;-64
2023/08/24 02:02:27;;;;;;;28.50;27.50;;;22.50;99.90;;;;;;5025803;28;20272;-64
2023/08/24 02:04:54;;;;;;;28.77;27.77;;;22.50;99.90;;;;;;5025140;28;20212;-65
2023/08/24 02:07:21;;;;;;;27.65;26.65;;;22.50;99.90;;;;;;5019793;28;20697;-64
2023/08/24 02:09:48;;;;;;;28.63;27.63;;;22.50;99.90;;;;;;5011976;28;20317;-64
2023/08/24 02:12:14;;;;;;;29.05;27.95;;;22.40;99.90;;;;;;5016714;28;20232;-63
2023/08/24 02:14:41;;;;;;;28.02;27.02;;;22.50;99.90;;;;;;5012793;28;20212;-64
2023/08/24 02:17:08;;;;;;;26.10;25.20;;;22.60;99.90;;;;;;5012879;28;20217;-65
2023/08/24 02:19:36;;;;;;;27.13;26.13;;;22.60;99.90;;;;;;5012259;28;20321;-64
2023/08/24 02:22:03;;;;;;;25.75;24.85;;;22.50;99.90;;;;;;5012666;28;20216;-64
2023/08/24 02:24:30;;;;;;;28.40;27.40;;;22.40;99.90;;;;;;5012462;28;20209;-65
2023/08/24 02:26:57;;;;;;;28.75;27.75;;;22.40;99.90;;;;;;5012283;28;20216;-64
2023/08/24 02:29:23;;;;;;;27.42;26.45;;;22.40;99.90;;;;;;5012039;28;20312;-64
2023/08/24 02:31:51;;;;;;;23.60;22.77;;;22.50;99.90;;;;;;5012747;28;20205;-64
2023/08/24 02:34:18;;;;;;;25.77;24.88;;;22.50;99.90;;;;;;5012013;28;20271;-64
2023/08/24 02:36:46;;;;;;;25.13;24.23;;;22.40;99.90;;;;;;5012169;28;20207;-63
2023/08/24 02:39:13;;;;;;;27.60;26.60;;;22.40;99.90;;;;;;5011213;28;20232;-64
2023/08/24 02:41:40;;;;;;;23.75;22.95;;;22.20;99.90;;;;;;5011841;28;20209;-63
2023/08/24 02:44:07;;;;;;;23.75;22.95;;;22.20;99.90;;;;;;5011677;28;20209;-64
2023/08/24 02:46:33;;;;;;;26.00;25.10;;;22.10;99.90;;;;;;5012191;28;20205;-64
2023/08/24 02:49:00;;;;;;;24.00;23.17;;;22.00;99.90;;;;;;5011410;28;20241;-63
2023/08/24 02:51:27;;;;;;;27.70;26.60;;;21.90;99.90;;;;;;5010831;28;20209;-63
2023/08/24 02:53:55;;;;;;;24.33;23.52;;;21.70;99.90;;;;;;5011649;28;20201;-63
2023/08/24 02:56:22;;;;;;;29.63;28.52;;;21.40;99.90;;;;;;5011656;28;20306;-63
2023/08/24 02:58:49;;;;;;;31.23;30.03;;;21.30;99.90;;;;;;5011523;28;20233;-64
2023/08/24 03:01:15;;;;;;;23.70;22.80;;;21.20;99.90;;;;;;5010628;28;20205;-63
2023/08/24 03:03:42;;;;;;;26.10;25.20;;;21.10;99.90;;;;;;5011760;28;20668;-63
2023/08/24 03:06:09;;;;;;;30.10;29.00;;;21.10;99.90;;;;;;5011448;28;20211;-64
2023/08/24 03:08:37;;;;;;;25.10;24.20;;;21.10;99.90;;;;;;5010805;28;20225;-64
2023/08/24 03:11:05;;;;;;;27.85;26.85;;;21.20;99.90;;;;;;5011299;28;20213;-64
2023/08/24 03:13:32;;;;;;;26.73;25.80;;;21.20;99.90;;;;;;5011861;28;20249;-64
2023/08/24 03:16:04;;;;;;;31.37;30.27;;;21.20;99.90;;;;;;5011619;28;20205;-64
2023/08/24 03:18:31;;;;;;;28.92;27.92;;;21.20;99.90;;;;;;5011521;28;20312;-63
2023/08/24 03:20:58;;;;;;;30.67;29.58;;;21.20;99.90;;;;;;5011119;28;20224;-63
2023/08/24 03:23:25;;;;;;;32.40;31.20;;;21.10;99.90;;;;;;5011810;28;20759;-64
2023/08/24 03:25:52;;;;;;;37.15;35.85;;;21.20;99.90;;;;;;5012071;28;20212;-63
2023/08/24 03:28:20;;;;;;;31.92;30.83;;;21.20;99.90;;;;;;5011597;28;20236;-63
2023/08/24 03:30:48;;;;;;;35.70;34.40;;;21.20;99.90;;;;;;5011021;28;20499;-64
2023/08/24 03:33:15;;;;;;;41.57;40.07;;;21.30;99.90;;;;;;5010597;28;20583;-64
2023/08/24 03:35:42;;;;;;;30.48;29.42;;;21.20;99.90;;;;;;5010065;28;20212;-63
2023/08/24 03:38:09;;;;;;;31.58;30.48;;;21.20;99.90;;;;;;5010128;28;20205;-63
2023/08/24 03:40:36;;;;;;;33.23;32.07;;;21.30;99.90;;;;;;5009258;28;20319;-64
2023/08/24 03:43:04;;;;;;;34.88;33.58;;;21.30;99.90;;;;;;5010235;28;20295;-63
2023/08/24 03:45:32;;;;;;;47.90;46.00;;;21.40;99.90;;;;;;5010386;28;20205;-63
2023/08/24 03:47:59;;;;;;;35.35;34.10;;;21.40;99.90;;;;;;5009705;28;20211;-63
2023/08/24 03:50:26;;;;;;;30.83;29.65;;;21.50;99.90;;;;;;5009234;28;20687;-64
2023/08/24 03:52:54;;;;;;;30.17;29.08;;;21.50;99.90;;;;;;5010196;28;20201;-64
2023/08/24 03:55:21;;;;;;;29.90;28.80;;;21.50;99.90;;;;;;5010411;28;20248;-65
2023/08/24 03:57:48;;;;;;;27.95;26.95;;;21.50;99.90;;;;;;5010757;28;20221;-63
2023/08/24 04:00:16;;;;;;;34.55;33.35;;;21.40;99.90;;;;;;5009569;28;20260;-64
2023/08/24 04:02:44;;;;;;;36.80;35.45;;;21.40;99.90;;;;;;5010896;28;20205;-64
2023/08/24 04:05:11;;;;;;;33.28;32.13;;;21.40;99.90;;;;;;5012410;28;20221;-63
2023/08/24 04:07:39;;;;;;;30.37;29.27;;;21.30;99.90;;;;;;5011657;28;20213;-62
2023/08/24 04:10:07;;;;;;;31.73;30.52;;;21.30;99.90;;;;;;5010330;28;20229;-65
2023/08/24 04:12:35;;;;;;;31.20;30.10;;;21.30;99.90;;;;;;5011387;28;20292;-63
2023/08/24 04:15:01;;;;;;;31.87;30.73;;;21.30;99.90;;;;;;5011142;28;20283;-63
2023/08/24 04:17:28;;;;;;;34.30;33.10;;;21.30;99.90;;;;;;5010874;28;20209;-64
2023/08/24 04:19:56;;;;;;;36.87;35.57;;;21.40;99.90;;;;;;5011545;28;20245;-64
2023/08/24 04:22:23;;;;;;;30.37;29.27;;;21.40;99.90;;;;;;5014882;28;20579;-63
2023/08/24 04:24:50;;;;;;;33.57;32.37;;;21.40;99.90;;;;;;5015067;28;20213;-62
2023/08/24 04:27:17;;;;;;;31.73;30.63;;;21.40;99.90;;;;;;5014957;28;20216;-62
2023/08/24 04:29:44;;;;;;;30.30;29.25;;;21.50;99.90;;;;;;5013897;28;20221;-63
2023/08/24 04:32:10;;;;;;;32.38;31.23;;;21.50;99.90;;;;;;5015064;28;20205;-63
2023/08/24 04:34:37;;;;;;;35.03;33.75;;;21.60;99.90;;;;;;5014024;28;20204;-62
2023/08/24 04:37:07;;;;;;;30.33;29.23;;;21.60;99.90;;;;;;5012160;28;20209;-65
2023/08/24 04:39:34;;;;;;;31.70;30.60;;;21.60;99.90;;;;;;5010751;28;20233;-62
2023/08/24 04:42:00;;;;;;;31.57;30.47;;;21.60;99.90;;;;;;5004716;28;20211;-63
2023/08/24 04:44:27;;;;;;;31.40;30.30;;;21.70;99.90;;;;;;5012726;28;20288;-64
2023/08/24 04:46:54;;;;;;;28.02;27.02;;;21.80;99.90;;;;;;5013037;28;20935;-63
2023/08/24 04:49:21;;;;;;;29.73;28.73;;;21.80;99.90;;;;;;5011852;28;20283;-64
2023/08/24 04:51:48;;;;;;;28.83;27.80;;;21.90;99.90;;;;;;5013032;28;20236;-63
2023/08/24 04:54:16;;;;;;;32.55;31.40;;;22.10;99.90;;;;;;5012539;28;20705;-63
2023/08/24 04:56:43;;;;;;;26.50;25.60;;;22.10;99.90;;;;;;5012991;28;20201;-64
2023/08/24 04:59:10;;;;;;;28.98;27.98;;;22.00;99.90;;;;;;5011570;28;20241;-65
2023/08/24 05:01:37;;;;;;;30.83;29.73;;;22.10;99.90;;;;;;5013311;28;20244;-63
2023/08/24 05:04:04;;;;;;;30.98;29.88;;;22.00;99.90;;;;;;5019002;28;20213;-65
2023/08/24 05:06:31;;;;;;;30.27;29.23;;;22.00;99.90;;;;;;5013934;28;20207;-64
2023/08/24 05:08:58;;;;;;;30.58;29.48;;;22.00;99.90;;;;;;5012046;28;20225;-65
2023/08/24 05:11:30;;;;;;;30.50;29.42;;;22.00;99.90;;;;;;5016971;28;20205;-64
2023/08/24 05:13:56;;;;;;;28.90;27.90;;;22.00;99.90;;;;;;5013275;28;20551;-64
2023/08/24 05:16:24;;;;;;;32.13;31.03;;;22.00;99.90;;;;;;5017230;28;20216;-65
2023/08/24 05:18:51;;;;;;;30.20;29.10;;;22.00;99.90;;;;;;5013463;28;20316;-65
2023/08/24 05:21:18;;;;;;;30.02;28.98;;;22.10;99.90;;;;;;5012734;28;20248;-65
2023/08/24 05:23:45;;;;;;;29.27;28.27;;;22.10;99.90;;;;;;5013228;28;20213;-62
2023/08/24 05:26:11;;;;;;;31.35;30.08;;;22.20;99.90;;;;;;5012270;28;20209;-62
2023/08/24 05:28:39;;;;;;;29.38;28.33;;;22.30;99.90;;;;;;5013021;28;20232;-65
2023/08/24 05:31:06;;;;;;;30.70;29.50;;;22.30;99.90;;;;;;5011705;28;20204;-64
2023/08/24 05:33:33;;;;;;;30.80;29.73;;;22.20;99.90;;;;;;4996507;28;20241;-64
2023/08/24 05:36:00;;;;;;;32.13;30.95;;;22.30;99.90;;;;;;5012806;28;20244;-64
2023/08/24 05:38:27;;;;;;;32.45;31.30;;;22.30;99.90;;;;;;5011964;28;20257;-64
2023/08/24 05:40:54;;;;;;;32.58;31.42;;;22.30;99.90;;;;;;5011979;28;20315;-66
2023/08/24 05:43:20;;;;;;;30.98;29.88;;;22.40;99.90;;;;;;5012637;28;20209;-64
2023/08/24 05:45:49;;;;;;;31.50;30.40;;;22.40;99.90;;;;;;5013191;28;20636;-63
2023/08/24 05:48:16;;;;;;;31.40;30.30;;;22.40;99.90;;;;;;5012874;28;20256;-65
2023/08/24 05:50:47;;;;;;;30.30;29.25;;;22.40;99.90;;;;;;5011934;28;20205;-63
2023/08/24 05:53:14;;;;;;;30.90;29.70;;;22.40;99.90;;;;;;5012283;28;20201;-64
2023/08/24 05:55:41;;;;;;;30.70;29.60;;;22.30;99.90;;;;;;5012361;28;20219;-64
2023/08/24 05:58:09;;;;;;;24.40;23.50;;;22.30;99.90;;;;;;5011416;28;20209;-63
2023/08/24 06:00:35;;;;;;;22.73;21.93;;;22.20;99.90;;;;;;5010618;28;20257;-64
2023/08/24 06:03:05;;;;;;;24.73;23.83;;;22.00;99.90;;;;;;5011452;28;20205;-63
2023/08/24 06:05:32;;;;;;;86.22;81.00;;;22.00;99.90;;;;;;5011030;28;20622;-63
2023/08/24 06:07:59;;;;;;;183.30;168.80;;;21.70;99.90;;;;;;5010866;28;20220;-63
2023/08/24 06:10:27;;;;;;;30.57;29.47;;;21.50;99.90;;;;;;5010531;28;20236;-64
2023/08/24 06:12:54;;;;;;;28.42;27.33;;;21.40;99.90;;;;;;5011341;28;20209;-63
2023/08/24 06:15:24;;;;;;;30.80;29.50;;;21.50;99.90;;;;;;5011224;28;20209;-64
2023/08/24 06:17:50;;;;;;;26.20;25.23;;;21.40;99.90;;;;;;5010906;28;20206;-64
2023/08/24 06:20:20;;;;;;;24.70;23.80;;;21.30;99.90;;;;;;5010251;28;20240;-64
2023/08/24 06:22:47;;;;;;;28.80;27.80;;;21.40;99.90;;;;;;5010850;28;20219;-64
2023/08/24 06:25:14;;;;;;;22.15;21.25;;;21.50;99.90;;;;;;5011252;28;20304;-64
2023/08/24 06:27:41;;;;;;;22.45;21.65;;;21.40;99.90;;;;;;5009556;28;20206;-64
2023/08/24 06:30:08;;;;;;;23.70;22.90;;;21.60;99.90;;;;;;5010280;28;20711;-64
2023/08/24 06:32:36;;;;;;;22.58;21.77;;;21.60;99.90;;;;;;5011109;28;20209;-63
2023/08/24 06:35:04;;;;;;;22.75;21.95;;;21.70;99.90;;;;;;5011410;28;20532;-65
2023/08/24 06:37:32;;;;;;;23.27;22.48;;;21.90;99.90;;;;;;5011132;28;20235;-64
2023/08/24 06:39:59;;;;;;;23.50;22.67;;;22.10;99.90;;;;;;5010279;28;20231;-64
2023/08/24 06:42:25;;;;;;;26.90;25.90;;;22.20;99.90;;;;;;5010714;28;20513;-64
2023/08/24 06:44:52;;;;;;;25.60;24.70;;;22.30;99.90;;;;;;5010693;28;20209;-64
2023/08/24 06:47:19;;;;;;;31.33;30.17;;;22.50;99.90;;;;;;5010653;28;20237;-64
2023/08/24 06:49:46;;;;;;;37.20;35.88;;;22.60;99.90;;;;;;5009828;28;20624;-65
2023/08/24 06:52:13;;;;;;;30.63;29.55;;;22.80;99.90;;;;;;5010883;28;20220;-65
2023/08/24 06:54:41;;;;;;;28.85;27.83;;;22.80;99.90;;;;;;5010567;28;20209;-64
2023/08/24 06:57:08;;;;;;;24.55;23.63;;;22.90;99.90;;;;;;5009255;28;20205;-65
2023/08/24 06:59:34;;;;;;;24.80;23.90;;;22.80;99.90;;;;;;5010076;28;20225;-64
2023/08/24 07:02:01;;;;;;;35.00;33.75;;;22.80;99.90;;;;;;5010007;28;20228;-65
2023/08/24 07:04:29;;;;;;;29.85;28.73;;;22.90;99.90;;;;;;5010450;28;20218;-64
2023/08/24 07:06:56;;;;;;;28.95;27.95;;;23.10;99.90;;;;;;5011178;28;20308;-64
2023/08/24 07:09:23;;;;;;;29.00;27.98;;;23.20;99.90;;;;;;5010442;28;20233;-64
2023/08/24 07:11:51;;;;;;;33.47;32.20;;;23.30;99.90;;;;;;5010778;28;20201;-65
2023/08/24 07:14:18;;;;;;;29.67;28.60;;;23.50;99.90;;;;;;5010375;28;20316;-64
2023/08/24 07:16:44;;;;;;;29.23;28.10;;;23.60;99.90;;;;;;5010204;28;20216;-65
2023/08/24 07:19:11;;;;;;;29.48;28.38;;;23.70;99.90;;;;;;5009435;28;20724;-65
2023/08/24 07:21:38;;;;;;;24.75;23.85;;;23.80;99.90;;;;;;5010453;28;20221;-65
2023/08/24 07:24:05;;;;;;;28.60;27.60;;;23.90;99.90;;;;;;5010227;28;20211;-65
2023/08/24 07:26:32;;;;;;;23.67;22.83;;;24.00;99.90;;;;;;5009830;28;20209;-65
2023/08/24 07:29:01;;;;;;;23.85;23.02;;;24.10;99.90;;;;;;5010865;28;20702;-65
2023/08/24 07:31:27;;;;;;;23.63;22.77;;;24.20;99.90;;;;;;5010842;28;20262;-64
2023/08/24 07:33:54;;;;;;;23.33;22.52;;;24.40;99.90;;;;;;5011307;28;20205;-65
2023/08/24 07:36:21;;;;;;;25.17;24.27;;;24.60;99.90;;;;;;5010877;28;20292;-65
2023/08/24 07:38:48;;;;;;;23.42;22.60;;;24.80;99.90;;;;;;5010038;28;20249;-65
2023/08/24 07:41:17;;;;;;;21.48;20.70;;;25.00;99.90;;;;;;5009130;28;20674;-65
2023/08/24 07:43:44;;;;;;;22.85;22.05;;;25.00;99.90;;;;;;5010386;28;20232;-65
2023/08/24 07:46:12;;;;;;;15.02;14.52;;;25.00;99.90;;;;;;5009921;28;20307;-65
2023/08/24 07:48:39;;;;;;;15.30;14.80;;;25.20;99.90;;;;;;5009994;28;21105;-66
2023/08/24 07:51:06;;;;;;;14.83;14.23;;;25.30;99.90;;;;;;5009523;28;20198;-63
2023/08/24 07:53:33;;;;;;;15.73;15.13;;;25.20;99.90;;;;;;5009668;28;20213;-65
2023/08/24 07:56:01;;;;;;;15.90;15.30;;;25.30;99.90;;;;;;5012813;28;20209;-65
2023/08/24 07:58:28;;;;;;;18.92;18.15;;;25.50;99.90;;;;;;5013696;28;20237;-64
2023/08/24 08:00:55;;;;;;;18.25;17.65;;;25.60;99.90;;;;;;5012937;28;20272;-64
2023/08/24 08:03:23;;;;;;;20.30;19.60;;;25.50;99.90;;;;;;5013455;28;20216;-65
2023/08/24 08:05:50;;;;;;;21.65;20.63;;;25.60;99.90;;;;;;5014211;28;20213;-64
2023/08/24 08:08:17;;;;;;;20.17;19.38;;;25.60;99.90;;;;;;5013699;28;20209;-64
2023/08/24 08:10:44;;;;;;;21.67;20.77;;;25.70;99.90;;;;;;5012605;28;20202;-64
2023/08/24 08:13:11;;;;;;;20.60;19.90;;;25.70;99.90;;;;;;5013874;28;20694;-64
2023/08/24 08:15:39;;;;;;;19.13;18.42;;;25.70;99.90;;;;;;5014249;28;20201;-65
2023/08/24 08:18:06;;;;;;;18.70;18.10;;;25.70;99.90;;;;;;5013609;28;20205;-65
2023/08/24 08:20:34;;;;;;;18.90;18.20;;;25.70;99.90;;;;;;5012484;28;20217;-65
2023/08/24 08:23:01;;;;;;;17.63;17.02;;;25.70;99.90;;;;;;5013432;28;20301;-65
2023/08/24 08:25:28;;;;;;;18.70;18.00;;;25.70;99.90;;;;;;5013549;28;20209;-65
2023/08/24 08:27:55;;;;;;;19.13;18.45;;;25.40;99.90;;;;;;5013592;28;20205;-64
2023/08/24 08:30:21;;;;;;;19.67;18.77;;;25.50;99.90;;;;;;5012736;28;20239;-64
2023/08/24 08:32:50;;;;;;;19.50;18.80;;;25.50;99.90;;;;;;5014898;28;20296;-65
2023/08/24 08:35:18;;;;;;;18.83;18.13;;;25.60;99.90;;;;;;5012038;28;20303;-64
2023/08/24 08:37:46;;;;;;;18.10;17.40;;;25.70;99.90;;;;;;5014929;28;20208;-65
2023/08/24 08:40:13;;;;;;;21.40;20.60;;;25.80;99.90;;;;;;5013282;28;20233;-64
2023/08/24 08:42:40;;;;;;;18.17;17.58;;;25.80;99.90;;;;;;5013525;28;20304;-65
2023/08/24 08:45:10;;;;;;;19.02;18.33;;;25.90;99.90;;;;;;5012922;28;20209;-66
2023/08/24 08:47:37;;;;;;;18.27;17.60;;;26.10;99.90;;;;;;5013455;28;20296;-65
2023/08/24 08:50:05;;;;;;;17.67;16.98;;;26.20;99.90;;;;;;5012371;28;20618;-65
2023/08/24 08:52:33;;;;;;;18.42;17.75;;;26.50;99.90;;;;;;5013377;28;20225;-65
2023/08/24 08:55:06;;;;;;;18.65;17.98;;;26.70;99.90;;;;;;5014097;28;20201;-65
2023/08/24 08:57:34;;;;;;;18.60;17.90;;;26.60;99.90;;;;;;5015939;28;20201;-65
2023/08/24 09:00:00;;;;;;;18.80;18.10;;;26.70;99.90;;;;;;5025152;28;20213;-65
2023/08/24 09:02:29;;;;;;;18.10;17.50;;;26.70;99.90;;;;;;5035007;28;20245;-65
2023/08/24 09:04:57;;;;;;;17.27;16.67;;;26.50;99.90;;;;;;5027230;28;20240;-66
2023/08/24 09:07:24;;;;;;;18.85;18.15;;;26.60;99.90;;;;;;5018361;28;20273;-66
2023/08/24 09:09:51;;;;;;;15.27;14.68;;;26.50;99.90;;;;;;5015004;28;20727;-65
2023/08/24 09:12:19;;;;;;;17.42;16.75;;;26.70;99.90;;;;;;5014198;28;20217;-66
2023/08/24 09:14:45;;;;;;;16.25;15.65;;;26.80;99.90;;;;;;5013913;28;20207;-65
2023/08/24 09:17:20;;;;;;;15.90;15.30;;;26.90;99.90;;;;;;5014119;28;20213;-65
2023/08/24 09:19:50;;;;;;;16.38;15.77;;;27.00;99.90;;;;;;5013051;28;20235;-65
2023/08/24 09:22:17;;;;;;;15.27;14.68;;;27.20;99.90;;;;;;5013991;28;20227;-65
2023/08/24 09:24:44;;;;;;;14.52;13.98;;;27.40;99.90;;;;;;5013972;28;20296;-64
2023/08/24 09:27:16;;;;;;;15.18;14.68;;;27.50;99.90;;;;;;5013323;28;20706;-66
2023/08/24 09:29:49;;;;;;;14.50;13.93;;;27.60;99.90;;;;;;5012547;28;20902;-65
2023/08/24 09:32:16;;;;;;;20.42;19.63;;;27.70;99.90;;;;;;5013310;28;20212;-66
2023/08/24 09:34:43;;;;;;;15.90;15.30;;;27.80;99.90;;;;;;5012922;28;20217;-66
2023/08/24 09:37:15;;;;;;;22.98;22.05;;;27.80;99.90;;;;;;5013183;28;20208;-65
2023/08/24 09:39:41;;;;;;;16.83;16.13;;;27.50;99.90;;;;;;5012237;28;20225;-65
2023/08/24 09:42:09;;;;;;;15.10;14.60;;;27.30;99.90;;;;;;5013326;28;20600;-65
2023/08/24 09:44:37;;;;;;;16.88;16.10;;;27.50;99.90;;;;;;5013088;28;20205;-64
2023/08/24 09:47:14;;;;;;;14.27;13.77;;;27.60;99.90;;;;;;5013248;28;20198;-67
2023/08/24 09:49:41;;;;;;;15.63;15.02;;;27.90;99.90;;;;;;5013214;28;20264;-66
2023/08/24 09:52:09;;;;;;;15.45;14.88;;;28.10;99.90;;;;;;5016403;28;20284;-65
2023/08/24 09:54:43;;;;;;;15.32;14.75;;;28.40;99.90;;;;;;5015593;28;20275;-66
2023/08/24 09:57:13;;;;;;;15.82;15.23;;;28.60;99.90;;;;;;5012536;28;20241;-66
2023/08/24 09:59:44;;;;;;;17.70;17.00;;;28.90;99.90;;;;;;5012170;28;20260;-66
2023/08/24 10:02:18;;;;;;;15.20;14.60;;;29.00;99.90;;;;;;5013366;28;20229;-65
2023/08/24 10:04:46;;;;;;;15.60;15.07;;;28.90;99.90;;;;;;5014288;28;20209;-66
2023/08/24 10:07:20;;;;;;;16.23;15.63;;;29.00;99.90;;;;;;5013230;28;20629;-63
2023/08/24 10:09:55;;;;;;;14.95;14.35;;;29.00;99.90;;;;;;5011700;28;20271;-66
2023/08/24 10:12:25;;;;;;;15.10;14.50;;;29.00;99.90;;;;;;5013181;28;20181;-65
2023/08/24 10:14:59;;;;;;;15.07;14.57;;;29.00;99.90;;;;;;5012940;28;20276;-66
2023/08/24 10:17:28;;;;;;;14.95;14.35;;;28.90;99.90;;;;;;5012182;28;20308;-65
2023/08/24 10:19:56;;;;;;;15.85;15.25;;;28.80;99.90;;;;;;5011638;28;20319;-66
2023/08/24 10:22:24;;;;;;;14.55;13.95;;;28.60;99.90;;;;;;5011231;28;20229;-66
2023/08/24 10:24:52;;;;;;;16.52;15.77;;;28.60;99.90;;;;;;5011260;28;20207;-65
2023/08/24 10:27:19;;;;;;;15.07;14.57;;;28.60;99.90;;;;;;5011568;28;20235;-66
2023/08/24 10:29:46;;;;;;;17.45;16.85;;;28.70;99.90;;;;;;5011043;28;20264;-66
2023/08/24 10:32:14;;;;;;;15.45;14.90;;;28.80;99.90;;;;;;5012833;28;20205;-66
2023/08/24 10:34:43;;;;;;;114.18;103.32;;;29.20;99.90;;;;;;5012808;28;20615;-65
2023/08/24 10:37:10;;;;;;;17.60;17.00;;;29.40;99.90;;;;;;5013011;28;20301;-65
2023/08/24 10:39:38;;;;;;;14.63;14.02;;;29.50;99.90;;;;;;5011494;28;20755;-66
2023/08/24 10:42:11;;;;;;;14.45;13.90;;;29.50;99.90;;;;;;5012042;28;20226;-66
2023/08/24 10:44:39;;;;;;;14.80;14.30;;;29.70;99.90;;;;;;5010957;28;20201;-65
2023/08/24 10:47:12;;;;;;;14.93;14.40;;;29.90;99.90;;;;;;5011348;28;20212;-66
2023/08/24 10:49:39;;;;;;;14.13;13.63;;;29.70;99.90;;;;;;5011384;28;20264;-65
2023/08/24 10:52:21;;;;;;;15.05;14.55;;;29.90;99.90;;;;;;5013455;28;20679;-66
2023/08/24 10:54:49;;;;;;;14.57;14.05;;;30.30;99.90;;;;;;5013209;28;20205;-65
2023/08/24 10:57:24;;;;;;;14.95;14.35;;;30.40;99.90;;;;;;5015964;28;20200;-65
2023/08/24 11:00:05;;;;;;;14.43;13.93;;;30.40;99.90;;;;;;5019688;28;20229;-65
2023/08/24 11:02:32;;;;;;;14.55;14.02;;;30.40;99.90;;;;;;5020793;28;20247;-66
2023/08/24 11:05:06;;;;;;;20.48;19.63;;;30.50;99.90;;;;;;5020605;28;20213;-66
2023/08/24 11:07:34;;;;;;;19.52;18.65;;;30.60;99.90;;;;;;5012799;28;20189;-66
2023/08/24 11:10:12;;;;;;;14.75;14.25;;;30.50;99.90;;;;;;5011424;28;20307;-65
2023/08/24 11:13:11;;;;;;;14.45;13.95;;;30.40;99.90;;;;;;5011356;28;20190;-65
2023/08/24 11:15:40;;;;;;;15.80;15.20;;;30.40;99.90;;;;;;5011160;28;20210;-66
2023/08/24 11:18:22;;;;;;;15.10;14.52;;;30.60;99.90;;;;;;5010340;28;20260;-65
2023/08/24 11:20:50;;;;;;;21.20;20.27;;;30.80;99.90;;;;;;5009946;28;20633;-65
2023/08/24 11:23:19;;;;;;;14.73;14.13;;;31.00;99.90;;;;;;5010807;28;20602;-66
2023/08/24 11:25:47;;;;;;;14.45;13.95;;;30.60;99.90;;;;;;5010668;28;20211;-65
2023/08/24 11:28:19;;;;;;;15.52;14.93;;;30.50;99.90;;;;;;5011197;28;20213;-65
2023/08/24 11:30:46;;;;;;;14.98;14.38;;;30.50;99.90;;;;;;5009577;28;20205;-65
2023/08/24 11:33:14;;;;;;;16.13;15.52;;;30.60;99.90;;;;;;5011013;28;20213;-66
2023/08/24 11:35:43;;;;;;;19.08;18.38;;;30.80;99.90;;;;;;5011260;28;20209;-66
2023/08/24 11:38:09;;;;;;;15.35;14.82;;;30.90;99.90;;;;;;5011760;28;20694;-66
2023/08/24 11:40:38;;;;;;;14.98;14.48;;;30.90;99.90;;;;;;5010869;28;20205;-65
2023/08/24 11:43:05;;;;;;;15.32;14.73;;;31.10;99.90;;;;;;5011236;28;20627;-66
2023/08/24 11:45:32;;;;;;;14.82;14.32;;;31.30;99.90;;;;;;5011190;28;20224;-65
2023/08/24 11:48:01;;;;;;;30.45;28.85;;;31.50;99.90;;;;;;5011204;28;20205;-64
2023/08/24 11:50:28;;;;;;;16.48;15.88;;;31.50;99.90;;;;;;5010653;28;20209;-66
2023/08/24 11:52:55;;;;;;;16.30;15.70;;;31.50;99.90;;;;;;5011072;28;20209;-66
2023/08/24 11:55:22;;;;;;;15.57;15.02;;;31.50;99.90;;;;;;5011577;28;20292;-66
2023/08/24 11:57:51;;;;;;;16.17;15.57;;;31.20;99.90;;;;;;5010859;28;20197;-66
2023/08/24 12:00:21;;;;;;;16.85;16.25;;;31.30;99.90;;;;;;5010373;28;20291;-65
2023/08/24 12:02:48;;;;;;;16.75;16.15;;;31.30;99.90;;;;;;5010772;28;20221;-65
2023/08/24 12:05:23;;;;;;;16.05;15.43;;;31.30;99.90;;;;;;5011442;28;20288;-65
2023/08/24 12:07:50;;;;;;;15.27;14.75;;;31.10;99.90;;;;;;5011448;28;20204;-65
2023/08/24 12:10:17;;;;;;;17.52;16.88;;;31.10;99.90;;;;;;5010777;28;20229;-65
2023/08/24 12:12:44;;;;;;;16.38;15.77;;;31.10;99.90;;;;;;5011917;28;20206;-65
2023/08/24 12:15:19;;;;;;;15.18;14.68;;;31.00;99.90;;;;;;5011191;28;20205;-65
2023/08/24 12:17:47;;;;;;;16.95;16.25;;;31.00;99.90;;;;;;5011285;28;20189;-65
2023/08/24 12:20:21;;;;;;;16.23;15.63;;;31.10;99.90;;;;;;5010064;28;20226;-65
2023/08/24 12:22:55;;;;;;;15.60;15.00;;;31.30;99.90;;;;;;5010503;28;20217;-67
2023/08/24 12:25:26;;;;;;;16.35;15.75;;;31.30;99.90;;;;;;5011181;28;20192;-66
2023/08/24 12:27:53;;;;;;;17.15;16.52;;;31.50;99.90;;;;;;5010353;28;20575;-66
2023/08/24 12:30:21;;;;;;;16.52;15.93;;;31.70;99.90;;;;;;5009556;28;20308;-65